sensor_id;sensor_type;location;lat;lon;timestamp;P1;durP1;ratioP1;P2;durP2;ratioP2
76320;SDS011;65132;52.088;5.402;2022-12-07T00:01:36;7.53;;;3.03;;
76320;SDS011;65132;52.088;5.402;2022-12-07T00:04:04;6.80;;;3.53;;
76320;SDS011;65132;52.088;5.402;2022-12-07T00:06:36;6.60;;;3.70;;
76320;SDS011;65132;52.088;5.402;2022-12-07T00:09:10;7.50;;;3.90;;
76320;SDS011;65132;52.088;5.402;2022-12-07T00:11:38;7.88;;;4.03;;
76320;SDS011;65132;52.088;5.402;2022-12-07T00:14:06;4.68;;;2.55;;
76320;SDS011;65132;52.088;5.402;2022-12-07T00:16:36;5.30;;;2.85;;
76320;SDS011;65132;52.088;5.402;2022-12-07T00:19:03;6.63;;;3.10;;
76320;SDS011;65132;52.088;5.402;2022-12-07T00:21:32;9.63;;;3.65;;
76320;SDS011;65132;52.088;5.402;2022-12-07T00:24:00;5.63;;;3.40;;
76320;SDS011;65132;52.088;5.402;2022-12-07T00:26:33;7.35;;;2.83;;
76320;SDS011;65132;52.088;5.402;2022-12-07T00:29:02;6.40;;;2.67;;
76320;SDS011;65132;52.088;5.402;2022-12-07T00:31:37;7.57;;;3.10;;
76320;SDS011;65132;52.088;5.402;2022-12-07T00:34:13;4.13;;;2.03;;
76320;SDS011;65132;52.088;5.402;2022-12-07T00:36:41;6.80;;;2.63;;
76320;SDS011;65132;52.088;5.402;2022-12-07T00:39:25;5.25;;;2.45;;
76320;SDS011;65132;52.088;5.402;2022-12-07T00:41:51;7.25;;;3.20;;
76320;SDS011;65132;52.088;5.402;2022-12-07T00:44:18;6.45;;;3.08;;
76320;SDS011;65132;52.088;5.402;2022-12-07T00:46:47;9.30;;;3.10;;
76320;SDS011;65132;52.088;5.402;2022-12-07T00:49:13;7.90;;;3.15;;
76320;SDS011;65132;52.088;5.402;2022-12-07T00:51:40;5.95;;;2.95;;
76320;SDS011;65132;52.088;5.402;2022-12-07T00:54:06;8.27;;;2.67;;
76320;SDS011;65132;52.088;5.402;2022-12-07T00:56:33;6.47;;;3.00;;
76320;SDS011;65132;52.088;5.402;2022-12-07T00:59:00;10.73;;;3.35;;
76320;SDS011;65132;52.088;5.402;2022-12-07T01:01:33;6.15;;;2.97;;
76320;SDS011;65132;52.088;5.402;2022-12-07T01:04:01;8.52;;;2.90;;
76320;SDS011;65132;52.088;5.402;2022-12-07T01:06:29;3.78;;;1.83;;
76320;SDS011;65132;52.088;5.402;2022-12-07T01:08:59;6.97;;;2.78;;
76320;SDS011;65132;52.088;5.402;2022-12-07T01:11:27;5.68;;;2.45;;
76320;SDS011;65132;52.088;5.402;2022-12-07T01:13:56;6.45;;;1.88;;
76320;SDS011;65132;52.088;5.402;2022-12-07T01:16:25;5.05;;;2.45;;
76320;SDS011;65132;52.088;5.402;2022-12-07T01:18:53;7.68;;;2.45;;
76320;SDS011;65132;52.088;5.402;2022-12-07T01:21:22;5.05;;;2.20;;
76320;SDS011;65132;52.088;5.402;2022-12-07T01:23:57;6.22;;;2.45;;
76320;SDS011;65132;52.088;5.402;2022-12-07T01:26:24;6.80;;;2.63;;
76320;SDS011;65132;52.088;5.402;2022-12-07T01:28:54;4.88;;;1.75;;
76320;SDS011;65132;52.088;5.402;2022-12-07T01:31:22;5.65;;;1.83;;
76320;SDS011;65132;52.088;5.402;2022-12-07T01:33:51;6.53;;;2.15;;
76320;SDS011;65132;52.088;5.402;2022-12-07T01:38:51;5.65;;;2.20;;
76320;SDS011;65132;52.088;5.402;2022-12-07T01:41:21;7.28;;;2.17;;
76320;SDS011;65132;52.088;5.402;2022-12-07T01:46:45;4.53;;;1.73;;
76320;SDS011;65132;52.088;5.402;2022-12-07T01:49:27;7.20;;;1.85;;
76320;SDS011;65132;52.088;5.402;2022-12-07T01:52:00;4.70;;;1.80;;
76320;SDS011;65132;52.088;5.402;2022-12-07T01:54:33;6.95;;;1.83;;
76320;SDS011;65132;52.088;5.402;2022-12-07T01:57:01;3.28;;;1.35;;
76320;SDS011;65132;52.088;5.402;2022-12-07T01:59:29;5.90;;;1.27;;
76320;SDS011;65132;52.088;5.402;2022-12-07T02:01:55;5.82;;;1.38;;
76320;SDS011;65132;52.088;5.402;2022-12-07T02:04:23;3.75;;;1.65;;
76320;SDS011;65132;52.088;5.402;2022-12-07T02:06:55;5.13;;;1.55;;
76320;SDS011;65132;52.088;5.402;2022-12-07T02:09:23;4.78;;;1.23;;
76320;SDS011;65132;52.088;5.402;2022-12-07T02:11:49;3.92;;;1.40;;
76320;SDS011;65132;52.088;5.402;2022-12-07T02:14:17;4.60;;;1.40;;
76320;SDS011;65132;52.088;5.402;2022-12-07T02:16:51;5.10;;;1.50;;
76320;SDS011;65132;52.088;5.402;2022-12-07T02:30:55;6.32;;;1.98;;
76320;SDS011;65132;52.088;5.402;2022-12-07T02:33:29;6.10;;;1.55;;
76320;SDS011;65132;52.088;5.402;2022-12-07T02:36:04;5.55;;;1.50;;
76320;SDS011;65132;52.088;5.402;2022-12-07T02:38:39;6.50;;;1.58;;
76320;SDS011;65132;52.088;5.402;2022-12-07T02:41:18;6.97;;;1.77;;
76320;SDS011;65132;52.088;5.402;2022-12-07T02:43:52;8.57;;;1.85;;
76320;SDS011;65132;52.088;5.402;2022-12-07T02:46:29;6.43;;;1.60;;
76320;SDS011;65132;52.088;5.402;2022-12-07T02:49:02;5.90;;;1.45;;
76320;SDS011;65132;52.088;5.402;2022-12-07T02:51:30;3.85;;;1.23;;
76320;SDS011;65132;52.088;5.402;2022-12-07T02:53:58;5.47;;;2.00;;
76320;SDS011;65132;52.088;5.402;2022-12-07T02:56:27;6.97;;;1.75;;
76320;SDS011;65132;52.088;5.402;2022-12-07T02:59:25;4.68;;;1.67;;
76320;SDS011;65132;52.088;5.402;2022-12-07T03:18:21;5.85;;;1.88;;
76320;SDS011;65132;52.088;5.402;2022-12-07T03:20:50;4.85;;;1.48;;
76320;SDS011;65132;52.088;5.402;2022-12-07T03:23:26;5.65;;;1.20;;
76320;SDS011;65132;52.088;5.402;2022-12-07T03:25:56;5.35;;;1.05;;
76320;SDS011;65132;52.088;5.402;2022-12-07T03:28:27;3.75;;;0.90;;
76320;SDS011;65132;52.088;5.402;2022-12-07T03:31:02;3.50;;;1.33;;
76320;SDS011;65132;52.088;5.402;2022-12-07T03:33:46;5.43;;;1.02;;
76320;SDS011;65132;52.088;5.402;2022-12-07T03:36:25;5.22;;;1.60;;
76320;SDS011;65132;52.088;5.402;2022-12-07T03:39:00;7.78;;;1.40;;
76320;SDS011;65132;52.088;5.402;2022-12-07T03:41:48;5.15;;;1.42;;
76320;SDS011;65132;52.088;5.402;2022-12-07T03:44:18;6.50;;;1.30;;
76320;SDS011;65132;52.088;5.402;2022-12-07T03:55:02;2.55;;;0.95;;
76320;SDS011;65132;52.088;5.402;2022-12-07T03:57:34;2.45;;;0.75;;
76320;SDS011;65132;52.088;5.402;2022-12-07T04:00:03;3.20;;;0.80;;
76320;SDS011;65132;52.088;5.402;2022-12-07T04:02:31;3.40;;;0.68;;
76320;SDS011;65132;52.088;5.402;2022-12-07T04:05:00;3.13;;;0.70;;
76320;SDS011;65132;52.088;5.402;2022-12-07T04:07:27;3.70;;;1.02;;
76320;SDS011;65132;52.088;5.402;2022-12-07T04:09:54;3.08;;;0.88;;
76320;SDS011;65132;52.088;5.402;2022-12-07T04:12:21;5.45;;;0.95;;
76320;SDS011;65132;52.088;5.402;2022-12-07T04:14:48;4.47;;;0.85;;
76320;SDS011;65132;52.088;5.402;2022-12-07T04:17:14;2.92;;;1.02;;
76320;SDS011;65132;52.088;5.402;2022-12-07T04:19:42;3.92;;;0.70;;
76320;SDS011;65132;52.088;5.402;2022-12-07T04:22:09;5.25;;;0.68;;
76320;SDS011;65132;52.088;5.402;2022-12-07T04:24:35;5.13;;;0.77;;
76320;SDS011;65132;52.088;5.402;2022-12-07T04:27:02;5.72;;;0.50;;
76320;SDS011;65132;52.088;5.402;2022-12-07T04:29:31;4.10;;;0.55;;
76320;SDS011;65132;52.088;5.402;2022-12-07T04:31:57;2.35;;;0.63;;
76320;SDS011;65132;52.088;5.402;2022-12-07T04:34:26;6.38;;;0.70;;
76320;SDS011;65132;52.088;5.402;2022-12-07T04:36:54;7.18;;;0.85;;
76320;SDS011;65132;52.088;5.402;2022-12-07T04:39:24;3.85;;;0.60;;
76320;SDS011;65132;52.088;5.402;2022-12-07T04:41:53;4.03;;;0.63;;
76320;SDS011;65132;52.088;5.402;2022-12-07T04:44:21;5.57;;;0.55;;
76320;SDS011;65132;52.088;5.402;2022-12-07T04:46:48;2.72;;;0.43;;
76320;SDS011;65132;52.088;5.402;2022-12-07T04:49:20;5.88;;;0.80;;
76320;SDS011;65132;52.088;5.402;2022-12-07T04:51:50;3.65;;;0.50;;
76320;SDS011;65132;52.088;5.402;2022-12-07T04:54:17;5.35;;;0.57;;
76320;SDS011;65132;52.088;5.402;2022-12-07T04:56:47;3.95;;;0.50;;
76320;SDS011;65132;52.088;5.402;2022-12-07T04:59:14;3.72;;;0.60;;
76320;SDS011;65132;52.088;5.402;2022-12-07T05:01:42;5.30;;;0.70;;
76320;SDS011;65132;52.088;5.402;2022-12-07T05:04:10;3.60;;;1.17;;
76320;SDS011;65132;52.088;5.402;2022-12-07T05:06:37;2.53;;;0.88;;
76320;SDS011;65132;52.088;5.402;2022-12-07T05:09:04;1.77;;;0.20;;
76320;SDS011;65132;52.088;5.402;2022-12-07T05:11:30;5.57;;;0.50;;
76320;SDS011;65132;52.088;5.402;2022-12-07T05:13:57;2.22;;;0.30;;
76320;SDS011;65132;52.088;5.402;2022-12-07T05:16:24;3.17;;;0.60;;
76320;SDS011;65132;52.088;5.402;2022-12-07T05:18:51;2.55;;;0.55;;
76320;SDS011;65132;52.088;5.402;2022-12-07T05:21:17;3.47;;;0.50;;
76320;SDS011;65132;52.088;5.402;2022-12-07T05:23:44;3.00;;;0.30;;
76320;SDS011;65132;52.088;5.402;2022-12-07T05:26:11;4.20;;;0.43;;
76320;SDS011;65132;52.088;5.402;2022-12-07T05:28:38;3.85;;;0.32;;
76320;SDS011;65132;52.088;5.402;2022-12-07T05:31:04;6.10;;;0.30;;
76320;SDS011;65132;52.088;5.402;2022-12-07T05:33:31;2.88;;;0.50;;
76320;SDS011;65132;52.088;5.402;2022-12-07T05:35:57;1.80;;;0.20;;
76320;SDS011;65132;52.088;5.402;2022-12-07T05:38:24;2.17;;;0.28;;
76320;SDS011;65132;52.088;5.402;2022-12-07T05:40:52;3.70;;;0.32;;
76320;SDS011;65132;52.088;5.402;2022-12-07T05:43:20;1.73;;;0.25;;
76320;SDS011;65132;52.088;5.402;2022-12-07T05:45:47;1.73;;;0.32;;
76320;SDS011;65132;52.088;5.402;2022-12-07T05:48:13;2.85;;;0.20;;
76320;SDS011;65132;52.088;5.402;2022-12-07T05:50:40;1.85;;;0.38;;
76320;SDS011;65132;52.088;5.402;2022-12-07T05:53:06;1.90;;;0.68;;
76320;SDS011;65132;52.088;5.402;2022-12-07T05:55:33;4.03;;;0.32;;
76320;SDS011;65132;52.088;5.402;2022-12-07T05:57:59;4.30;;;0.47;;
76320;SDS011;65132;52.088;5.402;2022-12-07T06:00:26;3.72;;;0.35;;
76320;SDS011;65132;52.088;5.402;2022-12-07T06:02:52;1.55;;;0.30;;
76320;SDS011;65132;52.088;5.402;2022-12-07T06:05:19;2.10;;;0.20;;
76320;SDS011;65132;52.088;5.402;2022-12-07T06:07:45;1.05;;;0.13;;
76320;SDS011;65132;52.088;5.402;2022-12-07T06:10:12;0.93;;;0.13;;
76320;SDS011;65132;52.088;5.402;2022-12-07T06:12:38;4.35;;;0.63;;
76320;SDS011;65132;52.088;5.402;2022-12-07T06:15:10;2.33;;;0.25;;
76320;SDS011;65132;52.088;5.402;2022-12-07T06:17:37;4.55;;;0.40;;
76320;SDS011;65132;52.088;5.402;2022-12-07T06:20:04;4.05;;;0.55;;
76320;SDS011;65132;52.088;5.402;2022-12-07T06:22:31;2.80;;;0.55;;
76320;SDS011;65132;52.088;5.402;2022-12-07T06:24:59;4.05;;;0.90;;
76320;SDS011;65132;52.088;5.402;2022-12-07T06:27:33;2.60;;;0.50;;
76320;SDS011;65132;52.088;5.402;2022-12-07T06:30:00;4.00;;;0.65;;
76320;SDS011;65132;52.088;5.402;2022-12-07T06:32:27;5.07;;;0.52;;
76320;SDS011;65132;52.088;5.402;2022-12-07T06:34:54;4.55;;;0.70;;
76320;SDS011;65132;52.088;5.402;2022-12-07T06:37:21;3.70;;;0.63;;
76320;SDS011;65132;52.088;5.402;2022-12-07T06:39:48;1.73;;;0.43;;
76320;SDS011;65132;52.088;5.402;2022-12-07T06:42:14;2.55;;;0.65;;
76320;SDS011;65132;52.088;5.402;2022-12-07T06:44:41;3.33;;;0.73;;
76320;SDS011;65132;52.088;5.402;2022-12-07T06:47:07;2.30;;;0.80;;
76320;SDS011;65132;52.088;5.402;2022-12-07T06:49:54;1.38;;;0.38;;
76320;SDS011;65132;52.088;5.402;2022-12-07T06:52:21;4.07;;;1.00;;
76320;SDS011;65132;52.088;5.402;2022-12-07T06:54:47;6.22;;;0.80;;
76320;SDS011;65132;52.088;5.402;2022-12-07T06:57:14;4.32;;;0.77;;
76320;SDS011;65132;52.088;5.402;2022-12-07T06:59:41;1.90;;;0.77;;
76320;SDS011;65132;52.088;5.402;2022-12-07T07:02:08;2.33;;;0.70;;
76320;SDS011;65132;52.088;5.402;2022-12-07T07:04:36;1.80;;;0.50;;
76320;SDS011;65132;52.088;5.402;2022-12-07T07:07:02;2.45;;;0.88;;
76320;SDS011;65132;52.088;5.402;2022-12-07T07:09:29;2.30;;;0.75;;
76320;SDS011;65132;52.088;5.402;2022-12-07T07:11:57;4.82;;;1.40;;
76320;SDS011;65132;52.088;5.402;2022-12-07T07:14:24;3.80;;;0.85;;
76320;SDS011;65132;52.088;5.402;2022-12-07T07:16:52;5.82;;;1.30;;
76320;SDS011;65132;52.088;5.402;2022-12-07T07:19:18;3.08;;;0.77;;
76320;SDS011;65132;52.088;5.402;2022-12-07T07:21:45;3.35;;;0.68;;
76320;SDS011;65132;52.088;5.402;2022-12-07T07:24:12;4.65;;;1.05;;
76320;SDS011;65132;52.088;5.402;2022-12-07T07:26:39;2.50;;;0.80;;
76320;SDS011;65132;52.088;5.402;2022-12-07T07:29:08;4.68;;;1.13;;
76320;SDS011;65132;52.088;5.402;2022-12-07T07:31:37;5.53;;;0.88;;
76320;SDS011;65132;52.088;5.402;2022-12-07T07:34:04;4.30;;;0.57;;
76320;SDS011;65132;52.088;5.402;2022-12-07T07:36:32;2.47;;;0.52;;
76320;SDS011;65132;52.088;5.402;2022-12-07T07:38:59;1.80;;;0.63;;
76320;SDS011;65132;52.088;5.402;2022-12-07T07:41:27;8.35;;;1.20;;
76320;SDS011;65132;52.088;5.402;2022-12-07T07:44:14;5.25;;;0.80;;
76320;SDS011;65132;52.088;5.402;2022-12-07T07:46:41;2.10;;;0.50;;
76320;SDS011;65132;52.088;5.402;2022-12-07T07:51:46;1.40;;;0.45;;
76320;SDS011;65132;52.088;5.402;2022-12-07T07:54:13;5.38;;;0.70;;
76320;SDS011;65132;52.088;5.402;2022-12-07T07:56:40;1.60;;;0.55;;
76320;SDS011;65132;52.088;5.402;2022-12-07T07:59:08;2.53;;;0.52;;
76320;SDS011;65132;52.088;5.402;2022-12-07T08:01:36;2.38;;;0.60;;
76320;SDS011;65132;52.088;5.402;2022-12-07T08:04:07;2.10;;;0.80;;
76320;SDS011;65132;52.088;5.402;2022-12-07T08:06:35;4.47;;;1.13;;
76320;SDS011;65132;52.088;5.402;2022-12-07T08:09:02;4.43;;;1.10;;
76320;SDS011;65132;52.088;5.402;2022-12-07T08:11:31;3.22;;;0.35;;
76320;SDS011;65132;52.088;5.402;2022-12-07T08:13:58;3.97;;;0.63;;
76320;SDS011;65132;52.088;5.402;2022-12-07T08:16:35;4.25;;;0.75;;
76320;SDS011;65132;52.088;5.402;2022-12-07T08:19:02;4.78;;;0.90;;
76320;SDS011;65132;52.088;5.402;2022-12-07T08:21:41;6.30;;;1.15;;
76320;SDS011;65132;52.088;5.402;2022-12-07T08:24:22;3.35;;;0.50;;
76320;SDS011;65132;52.088;5.402;2022-12-07T08:26:49;4.88;;;0.75;;
76320;SDS011;65132;52.088;5.402;2022-12-07T08:29:20;2.58;;;0.55;;
76320;SDS011;65132;52.088;5.402;2022-12-07T08:31:54;3.20;;;0.60;;
76320;SDS011;65132;52.088;5.402;2022-12-07T08:34:42;2.53;;;0.50;;
76320;SDS011;65132;52.088;5.402;2022-12-07T08:37:08;3.67;;;0.50;;
76320;SDS011;65132;52.088;5.402;2022-12-07T08:39:35;4.05;;;0.70;;
76320;SDS011;65132;52.088;5.402;2022-12-07T08:42:01;4.18;;;0.50;;
76320;SDS011;65132;52.088;5.402;2022-12-07T08:44:27;4.22;;;0.35;;
76320;SDS011;65132;52.088;5.402;2022-12-07T08:46:55;3.72;;;0.70;;
76320;SDS011;65132;52.088;5.402;2022-12-07T08:49:27;3.28;;;0.50;;
76320;SDS011;65132;52.088;5.402;2022-12-07T08:51:58;4.07;;;0.52;;
76320;SDS011;65132;52.088;5.402;2022-12-07T08:54:25;3.28;;;0.40;;
76320;SDS011;65132;52.088;5.402;2022-12-07T08:56:51;4.35;;;0.60;;
76320;SDS011;65132;52.088;5.402;2022-12-07T08:59:25;3.58;;;0.60;;
76320;SDS011;65132;52.088;5.402;2022-12-07T09:01:53;5.30;;;0.80;;
76320;SDS011;65132;52.088;5.402;2022-12-07T09:04:20;2.67;;;0.65;;
76320;SDS011;65132;52.088;5.402;2022-12-07T09:06:46;3.92;;;0.43;;
76320;SDS011;65132;52.088;5.402;2022-12-07T09:09:13;2.10;;;0.73;;
76320;SDS011;65132;52.088;5.402;2022-12-07T09:11:40;3.60;;;1.08;;
76320;SDS011;65132;52.088;5.402;2022-12-07T09:14:08;4.40;;;0.50;;
76320;SDS011;65132;52.088;5.402;2022-12-07T09:16:34;2.22;;;0.65;;
76320;SDS011;65132;52.088;5.402;2022-12-07T09:19:02;3.20;;;0.40;;
76320;SDS011;65132;52.088;5.402;2022-12-07T09:21:28;4.28;;;0.75;;
76320;SDS011;65132;52.088;5.402;2022-12-07T09:23:55;3.35;;;0.93;;
76320;SDS011;65132;52.088;5.402;2022-12-07T09:26:21;4.70;;;0.80;;
76320;SDS011;65132;52.088;5.402;2022-12-07T09:28:48;5.30;;;0.50;;
76320;SDS011;65132;52.088;5.402;2022-12-07T09:31:14;6.35;;;0.90;;
76320;SDS011;65132;52.088;5.402;2022-12-07T09:33:59;4.55;;;0.85;;
76320;SDS011;65132;52.088;5.402;2022-12-07T09:36:27;4.00;;;1.17;;
76320;SDS011;65132;52.088;5.402;2022-12-07T09:38:54;3.70;;;0.52;;
76320;SDS011;65132;52.088;5.402;2022-12-07T09:41:21;4.10;;;0.60;;
76320;SDS011;65132;52.088;5.402;2022-12-07T09:43:50;4.70;;;0.65;;
76320;SDS011;65132;52.088;5.402;2022-12-07T09:46:18;2.10;;;0.52;;
76320;SDS011;65132;52.088;5.402;2022-12-07T09:48:47;3.83;;;0.70;;
76320;SDS011;65132;52.088;5.402;2022-12-07T09:53:50;4.30;;;0.63;;
76320;SDS011;65132;52.088;5.402;2022-12-07T09:56:18;4.57;;;0.60;;
76320;SDS011;65132;52.088;5.402;2022-12-07T09:58:45;5.63;;;0.50;;
76320;SDS011;65132;52.088;5.402;2022-12-07T10:01:14;3.88;;;0.47;;
76320;SDS011;65132;52.088;5.402;2022-12-07T10:03:48;2.92;;;0.50;;
76320;SDS011;65132;52.088;5.402;2022-12-07T10:06:20;2.65;;;0.60;;
76320;SDS011;65132;52.088;5.402;2022-12-07T10:08:47;6.20;;;0.45;;
76320;SDS011;65132;52.088;5.402;2022-12-07T10:11:14;3.85;;;0.70;;
76320;SDS011;65132;52.088;5.402;2022-12-07T10:13:41;4.45;;;0.80;;
76320;SDS011;65132;52.088;5.402;2022-12-07T10:22:07;7.57;;;0.45;;
76320;SDS011;65132;52.088;5.402;2022-12-07T10:24:40;3.00;;;0.70;;
76320;SDS011;65132;52.088;5.402;2022-12-07T10:27:18;4.70;;;1.00;;
76320;SDS011;65132;52.088;5.402;2022-12-07T10:30:12;4.55;;;0.70;;
76320;SDS011;65132;52.088;5.402;2022-12-07T10:32:40;3.95;;;0.70;;
76320;SDS011;65132;52.088;5.402;2022-12-07T10:37:54;8.55;;;1.52;;
76320;SDS011;65132;52.088;5.402;2022-12-07T10:51:38;3.60;;;0.82;;
76320;SDS011;65132;52.088;5.402;2022-12-07T10:54:25;6.50;;;1.08;;
76320;SDS011;65132;52.088;5.402;2022-12-07T11:02:55;3.45;;;1.10;;
76320;SDS011;65132;52.088;5.402;2022-12-07T11:17:05;3.83;;;0.82;;
76320;SDS011;65132;52.088;5.402;2022-12-07T11:22:14;3.65;;;0.68;;
76320;SDS011;65132;52.088;5.402;2022-12-07T11:27:47;2.85;;;0.65;;
76320;SDS011;65132;52.088;5.402;2022-12-07T11:30:32;4.40;;;1.38;;
76320;SDS011;65132;52.088;5.402;2022-12-07T11:33:27;2.00;;;0.30;;
76320;SDS011;65132;52.088;5.402;2022-12-07T11:36:02;3.28;;;0.45;;
76320;SDS011;65132;52.088;5.402;2022-12-07T11:38:55;5.35;;;0.47;;
76320;SDS011;65132;52.088;5.402;2022-12-07T11:41:28;4.20;;;0.98;;
76320;SDS011;65132;52.088;5.402;2022-12-07T11:44:07;3.05;;;0.40;;
76320;SDS011;65132;52.088;5.402;2022-12-07T11:46:56;3.17;;;0.70;;
76320;SDS011;65132;52.088;5.402;2022-12-07T11:49:42;5.63;;;0.38;;
76320;SDS011;65132;52.088;5.402;2022-12-07T11:52:16;2.90;;;0.40;;
76320;SDS011;65132;52.088;5.402;2022-12-07T11:54:48;5.05;;;0.38;;
76320;SDS011;65132;52.088;5.402;2022-12-07T11:57:20;5.03;;;0.73;;
76320;SDS011;65132;52.088;5.402;2022-12-07T12:00:13;2.88;;;0.40;;
76320;SDS011;65132;52.088;5.402;2022-12-07T12:02:58;4.57;;;0.80;;
76320;SDS011;65132;52.088;5.402;2022-12-07T12:05:30;3.13;;;0.73;;
76320;SDS011;65132;52.088;5.402;2022-12-07T12:08:02;2.95;;;0.43;;
76320;SDS011;65132;52.088;5.402;2022-12-07T12:17:18;4.43;;;0.70;;
76320;SDS011;65132;52.088;5.402;2022-12-07T12:22:44;4.82;;;0.60;;
76320;SDS011;65132;52.088;5.402;2022-12-07T12:25:25;3.00;;;0.45;;
76320;SDS011;65132;52.088;5.402;2022-12-07T12:27:55;3.35;;;0.70;;
76320;SDS011;65132;52.088;5.402;2022-12-07T12:33:00;3.50;;;0.50;;
76320;SDS011;65132;52.088;5.402;2022-12-07T12:35:36;5.28;;;0.75;;
76320;SDS011;65132;52.088;5.402;2022-12-07T12:40:55;3.67;;;0.45;;
76320;SDS011;65132;52.088;5.402;2022-12-07T12:51:42;4.60;;;0.60;;
76320;SDS011;65132;52.088;5.402;2022-12-07T12:54:12;3.55;;;0.60;;
76320;SDS011;65132;52.088;5.402;2022-12-07T13:01:51;4.05;;;0.60;;
76320;SDS011;65132;52.088;5.402;2022-12-07T13:04:23;3.03;;;0.40;;
76320;SDS011;65132;52.088;5.402;2022-12-07T13:06:56;3.92;;;0.45;;
76320;SDS011;65132;52.088;5.402;2022-12-07T13:09:27;2.08;;;0.45;;
76320;SDS011;65132;52.088;5.402;2022-12-07T13:11:58;2.55;;;0.50;;
76320;SDS011;65132;52.088;5.402;2022-12-07T13:17:03;1.15;;;0.10;;
76320;SDS011;65132;52.088;5.402;2022-12-07T13:24:57;2.47;;;0.20;;
76320;SDS011;65132;52.088;5.402;2022-12-07T13:27:31;1.55;;;0.32;;
76320;SDS011;65132;52.088;5.402;2022-12-07T13:29:58;7.43;;;3.50;;
76320;SDS011;65132;52.088;5.402;2022-12-07T13:32:28;13.13;;;7.45;;
76320;SDS011;65132;52.088;5.402;2022-12-07T13:34:55;4.57;;;1.77;;
76320;SDS011;65132;52.088;5.402;2022-12-07T13:37:25;4.35;;;0.50;;
76320;SDS011;65132;52.088;5.402;2022-12-07T13:40:17;2.08;;;0.30;;
76320;SDS011;65132;52.088;5.402;2022-12-07T13:42:46;1.60;;;0.30;;
76320;SDS011;65132;52.088;5.402;2022-12-07T13:45:23;2.40;;;0.50;;
76320;SDS011;65132;52.088;5.402;2022-12-07T13:47:57;2.97;;;0.65;;
76320;SDS011;65132;52.088;5.402;2022-12-07T13:52:56;3.15;;;0.75;;
76320;SDS011;65132;52.088;5.402;2022-12-07T13:55:25;3.95;;;0.88;;
76320;SDS011;65132;52.088;5.402;2022-12-07T13:57:54;2.85;;;0.80;;
76320;SDS011;65132;52.088;5.402;2022-12-07T14:00:29;2.10;;;0.65;;
76320;SDS011;65132;52.088;5.402;2022-12-07T14:03:00;3.13;;;0.60;;
76320;SDS011;65132;52.088;5.402;2022-12-07T14:05:29;5.30;;;0.70;;
76320;SDS011;65132;52.088;5.402;2022-12-07T14:08:05;5.45;;;1.73;;
76320;SDS011;65132;52.088;5.402;2022-12-07T14:13:31;2.50;;;0.40;;
76320;SDS011;65132;52.088;5.402;2022-12-07T14:15:59;5.72;;;0.55;;
76320;SDS011;65132;52.088;5.402;2022-12-07T14:18:36;5.35;;;1.25;;
76320;SDS011;65132;52.088;5.402;2022-12-07T14:23:37;5.78;;;0.90;;
76320;SDS011;65132;52.088;5.402;2022-12-07T14:26:15;5.35;;;0.60;;
76320;SDS011;65132;52.088;5.402;2022-12-07T14:28:46;4.63;;;1.42;;
76320;SDS011;65132;52.088;5.402;2022-12-07T14:31:14;3.67;;;0.75;;
76320;SDS011;65132;52.088;5.402;2022-12-07T14:33:54;6.70;;;2.55;;
76320;SDS011;65132;52.088;5.402;2022-12-07T14:36:20;9.50;;;3.78;;
76320;SDS011;65132;52.088;5.402;2022-12-07T14:38:47;3.47;;;1.30;;
76320;SDS011;65132;52.088;5.402;2022-12-07T14:41:14;4.85;;;1.08;;
76320;SDS011;65132;52.088;5.402;2022-12-07T14:43:47;23.02;;;9.45;;
76320;SDS011;65132;52.088;5.402;2022-12-07T14:46:33;53.10;;;23.35;;
76320;SDS011;65132;52.088;5.402;2022-12-07T14:49:01;58.92;;;25.73;;
76320;SDS011;65132;52.088;5.402;2022-12-07T14:51:48;31.50;;;18.20;;
76320;SDS011;65132;52.088;5.402;2022-12-07T14:54:34;9.85;;;4.65;;
76320;SDS011;65132;52.088;5.402;2022-12-07T14:57:00;5.22;;;1.90;;
76320;SDS011;65132;52.088;5.402;2022-12-07T14:59:27;5.35;;;0.70;;
76320;SDS011;65132;52.088;5.402;2022-12-07T15:01:53;2.88;;;0.50;;
76320;SDS011;65132;52.088;5.402;2022-12-07T15:04:20;2.60;;;0.70;;
76320;SDS011;65132;52.088;5.402;2022-12-07T15:06:57;3.13;;;0.70;;
76320;SDS011;65132;52.088;5.402;2022-12-07T15:09:25;5.35;;;0.85;;
76320;SDS011;65132;52.088;5.402;2022-12-07T15:11:51;2.42;;;0.30;;
76320;SDS011;65132;52.088;5.402;2022-12-07T15:14:18;1.67;;;0.32;;
76320;SDS011;65132;52.088;5.402;2022-12-07T15:16:44;6.68;;;1.95;;
76320;SDS011;65132;52.088;5.402;2022-12-07T15:19:31;4.55;;;0.77;;
76320;SDS011;65132;52.088;5.402;2022-12-07T15:21:57;4.18;;;0.75;;
76320;SDS011;65132;52.088;5.402;2022-12-07T15:24:24;3.42;;;0.60;;
76320;SDS011;65132;52.088;5.402;2022-12-07T15:26:52;1.40;;;0.60;;
76320;SDS011;65132;52.088;5.402;2022-12-07T15:29:27;4.05;;;0.60;;
76320;SDS011;65132;52.088;5.402;2022-12-07T15:31:53;4.05;;;0.32;;
76320;SDS011;65132;52.088;5.402;2022-12-07T15:34:26;1.73;;;0.35;;
76320;SDS011;65132;52.088;5.402;2022-12-07T15:36:58;3.13;;;0.40;;
76320;SDS011;65132;52.088;5.402;2022-12-07T15:39:25;2.70;;;0.30;;
76320;SDS011;65132;52.088;5.402;2022-12-07T15:41:51;4.47;;;0.47;;
76320;SDS011;65132;52.088;5.402;2022-12-07T15:44:17;6.00;;;0.50;;
76320;SDS011;65132;52.088;5.402;2022-12-07T15:46:44;1.48;;;0.45;;
76320;SDS011;65132;52.088;5.402;2022-12-07T15:49:15;1.77;;;0.50;;
76320;SDS011;65132;52.088;5.402;2022-12-07T15:51:43;1.15;;;0.30;;
76320;SDS011;65132;52.088;5.402;2022-12-07T15:54:20;2.78;;;0.35;;
76320;SDS011;65132;52.088;5.402;2022-12-07T15:56:49;5.95;;;1.48;;
76320;SDS011;65132;52.088;5.402;2022-12-07T15:59:16;3.90;;;0.70;;
76320;SDS011;65132;52.088;5.402;2022-12-07T16:01:42;3.63;;;0.60;;
76320;SDS011;65132;52.088;5.402;2022-12-07T16:04:09;3.97;;;1.23;;
76320;SDS011;65132;52.088;5.402;2022-12-07T16:06:36;2.15;;;0.90;;
76320;SDS011;65132;52.088;5.402;2022-12-07T16:09:04;5.57;;;3.50;;
76320;SDS011;65132;52.088;5.402;2022-12-07T16:11:31;2.90;;;0.80;;
76320;SDS011;65132;52.088;5.402;2022-12-07T16:13:58;4.90;;;2.75;;
76320;SDS011;65132;52.088;5.402;2022-12-07T16:16:25;79.72;;;36.40;;
76320;SDS011;65132;52.088;5.402;2022-12-07T16:18:52;35.05;;;20.27;;
76320;SDS011;65132;52.088;5.402;2022-12-07T16:21:19;12.50;;;7.30;;
76320;SDS011;65132;52.088;5.402;2022-12-07T16:23:50;6.97;;;4.95;;
76320;SDS011;65132;52.088;5.402;2022-12-07T16:26:18;8.45;;;3.30;;
76320;SDS011;65132;52.088;5.402;2022-12-07T16:28:50;7.05;;;4.43;;
76320;SDS011;65132;52.088;5.402;2022-12-07T16:31:20;5.30;;;2.20;;
76320;SDS011;65132;52.088;5.402;2022-12-07T16:33:49;4.32;;;1.90;;
76320;SDS011;65132;52.088;5.402;2022-12-07T16:36:16;4.93;;;2.03;;
76320;SDS011;65132;52.088;5.402;2022-12-07T16:39:04;5.10;;;1.88;;
76320;SDS011;65132;52.088;5.402;2022-12-07T16:41:32;3.00;;;1.10;;
76320;SDS011;65132;52.088;5.402;2022-12-07T16:44:03;5.75;;;1.33;;
76320;SDS011;65132;52.088;5.402;2022-12-07T16:46:33;5.05;;;1.60;;
76320;SDS011;65132;52.088;5.402;2022-12-07T16:49:02;5.40;;;2.00;;
76320;SDS011;65132;52.088;5.402;2022-12-07T16:51:29;3.80;;;1.77;;
76320;SDS011;65132;52.088;5.402;2022-12-07T16:53:56;4.65;;;1.70;;
76320;SDS011;65132;52.088;5.402;2022-12-07T16:56:23;3.35;;;1.58;;
76320;SDS011;65132;52.088;5.402;2022-12-07T16:58:50;5.25;;;1.38;;
76320;SDS011;65132;52.088;5.402;2022-12-07T17:01:17;3.40;;;0.90;;
76320;SDS011;65132;52.088;5.402;2022-12-07T17:03:46;5.47;;;2.90;;
76320;SDS011;65132;52.088;5.402;2022-12-07T17:06:20;4.00;;;1.75;;
76320;SDS011;65132;52.088;5.402;2022-12-07T17:08:49;5.97;;;3.20;;
76320;SDS011;65132;52.088;5.402;2022-12-07T17:11:18;4.28;;;2.10;;
76320;SDS011;65132;52.088;5.402;2022-12-07T17:13:47;3.70;;;1.23;;
76320;SDS011;65132;52.088;5.402;2022-12-07T17:16:13;3.58;;;1.55;;
76320;SDS011;65132;52.088;5.402;2022-12-07T17:18:40;3.97;;;1.38;;
76320;SDS011;65132;52.088;5.402;2022-12-07T17:21:07;4.03;;;1.30;;